Gordon, Louisiana
Current Conditions -  °F | °C
As of 6:56 PM on Saturday 22 Nov 2014 (Local Time) from KMNE Reporting Station
Clear Clear  
Wind Chill: 64°   Ceiling: Unl
Heat Index: 64°   Visibility: 10mi
Dew Point: 57°   Wind: 5mph
Humidity: 77%   Direction: 110°ESE
Pressure: 29.91"   Gusts: NA
Location:  32.9128°N, 93.0286°W
Report Text: KMNE 230056Z AUTO 11004KT 10SM CLR 18/14 A2991 RMK AO2 LTG DSNT SW
Loading
Personal Weather Stations






























Interactive Weather Map New forecast layout! Learn more

10-Day Weather Forecast

Advertisements
Track Severe Weather on mobile